Time;durP1;ratioP1;P1;durP2;ratioP2;P2;SDS_P1;SDS_P2;PMS_P1;PMS_P2;Temp;Humidity;BMP_temperature;BMP_pressure;BME280_temperature;BME280_humidity;BME280_pressure;Samples;Min_cycle;Max_cycle;Signal;HPM_P1;HPM_P2
2022/07/30 00:00:21;;;;;;;4.28;2.42;;;;;;;27.28;39.55;94960.50;5063571;28;20032;-57
2022/07/30 00:02:47;;;;;;;4.15;2.67;;;;;;;27.24;39.65;94964.84;5063620;28;20036;-54
2022/07/30 00:05:13;;;;;;;4.30;2.70;;;;;;;27.23;39.96;94952.41;5062994;28;20074;-55
2022/07/30 00:07:38;;;;;;;4.45;2.92;;;;;;;27.23;40.18;94963.38;5063662;28;20935;-56
2022/07/30 00:10:04;;;;;;;5.55;2.67;;;;;;;27.24;39.90;94951.88;5063309;28;20055;-55
2022/07/30 00:12:29;;;;;;;4.43;2.63;;;;;;;27.22;39.86;94956.41;5063340;28;20052;-54
2022/07/30 00:14:55;;;;;;;3.60;2.47;;;;;;;27.18;40.04;94951.28;5063231;28;20110;-51
2022/07/30 00:17:20;;;;;;;3.80;2.63;;;;;;;27.21;39.60;94947.47;5063296;28;20033;-56
2022/07/30 00:19:46;;;;;;;3.60;2.50;;;;;;;27.20;40.02;94943.22;5063470;28;20427;-53
2022/07/30 00:22:12;;;;;;;3.85;2.80;;;;;;;27.17;39.93;94935.34;5063277;28;20067;-52
2022/07/30 00:24:37;;;;;;;3.40;2.67;;;;;;;27.13;39.85;94941.19;5063260;28;20048;-57
2022/07/30 00:27:03;;;;;;;5.53;2.65;;;;;;;27.17;40.01;94949.06;5062927;28;20044;-57
2022/07/30 00:29:29;;;;;;;4.95;2.80;;;;;;;27.11;40.02;94940.97;5063387;28;20475;-53
2022/07/30 00:31:55;;;;;;;8.32;2.92;;;;;;;27.12;39.95;94936.97;5045303;28;20056;-50
2022/07/30 00:34:20;;;;;;;3.42;2.53;;;;;;;27.10;39.83;94939.50;5063238;28;20067;-54
2022/07/30 00:36:46;;;;;;;3.67;3.00;;;;;;;27.08;39.89;94936.56;5063220;28;20506;-51
2022/07/30 00:39:11;;;;;;;3.33;2.70;;;;;;;27.05;40.20;94937.63;5063400;28;20162;-52
2022/07/30 00:41:56;;;;;;;3.40;2.55;;;;;;;27.06;40.13;94944.59;5062577;28;20032;-56
2022/07/30 00:44:22;;;;;;;4.32;2.70;;;;;;;27.06;40.44;94936.34;5062450;28;20039;-50
2022/07/30 00:46:47;;;;;;;4.22;2.78;;;;;;;27.05;40.33;94943.09;5062426;28;20036;-51
2022/07/30 00:49:13;;;;;;;3.80;2.70;;;;;;;27.01;40.05;94931.75;5062690;28;20041;-54
2022/07/30 00:51:38;;;;;;;4.72;2.72;;;;;;;27.00;40.23;94941.25;5062567;28;20032;-54
2022/07/30 00:54:03;;;;;;;4.32;2.90;;;;;;;27.00;40.36;94941.25;5062689;28;20106;-58
2022/07/30 00:56:29;;;;;;;4.43;2.97;;;;;;;27.00;40.25;94935.75;5061680;28;20047;-52
2022/07/30 00:58:54;;;;;;;3.10;2.53;;;;;;;26.95;40.78;94922.94;5062443;28;20037;-52
2022/07/30 01:01:20;;;;;;;5.18;2.90;;;;;;;26.96;40.54;94929.88;5061917;28;20040;-52
2022/07/30 01:03:45;;;;;;;4.55;2.65;;;;;;;26.95;40.47;94928.41;5061884;28;20447;-54
2022/07/30 01:06:11;;;;;;;3.35;2.80;;;;;;;26.94;40.85;94915.97;5062351;28;20035;-54
2022/07/30 01:08:36;;;;;;;3.55;3.10;;;;;;;26.94;40.72;94926.94;5043045;28;20052;-52
2022/07/30 01:11:01;;;;;;;4.15;3.00;;;;;;;26.94;40.59;94932.41;5061862;28;20033;-56
2022/07/30 01:13:27;;;;;;;4.82;2.60;;;;;;;26.92;40.88;94924.00;5062247;28;20098;-55
2022/07/30 01:15:52;;;;;;;4.70;2.90;;;;;;;26.94;40.82;94926.22;5062220;28;20020;-54
2022/07/30 01:18:18;;;;;;;3.85;2.90;;;;;;;26.87;40.83;94927.56;5044429;28;20411;-58
2022/07/30 01:21:06;;;;;;;3.92;3.17;;;;;;;26.85;41.36;94927.38;5040965;28;20447;-58
2022/07/30 01:23:38;;;;;;;4.05;3.20;;;;;;;26.83;41.18;94938.13;5043632;28;20074;-51
2022/07/30 01:26:06;;;;;;;3.38;2.97;;;;;;;26.84;41.62;94936.84;5037721;28;20461;-58
2022/07/30 01:28:33;;;;;;;5.43;2.95;;;;;;;26.82;41.64;94936.66;5044431;28;20563;-52
2022/07/30 01:30:58;;;;;;;3.53;3.05;;;;;;;26.86;41.52;94926.09;5037558;28;20051;-56
2022/07/30 01:33:24;;;;;;;4.50;3.20;;;;;;;26.79;41.72;94929.50;5061503;28;20037;-55
2022/07/30 01:35:49;;;;;;;3.80;3.00;;;;;;;26.80;41.78;94933.72;5043283;28;20609;-52
2022/07/30 01:38:16;;;;;;;4.28;2.90;;;;;;;26.82;42.01;94931.19;5043262;28;20376;-52
2022/07/30 01:40:44;;;;;;;3.83;2.95;;;;;;;26.75;42.01;94930.38;5044043;28;20036;-51
2022/07/30 01:43:10;;;;;;;3.97;3.17;;;;;;;26.74;42.33;94934.38;5027432;28;20040;-51
2022/07/30 01:45:35;;;;;;;3.97;3.30;;;;;;;26.71;42.16;94929.97;5062175;28;20501;-53
2022/07/30 01:48:02;;;;;;;5.30;3.15;;;;;;;26.70;42.12;94934.72;5027078;28;20033;-51
2022/07/30 01:50:27;;;;;;;4.35;3.13;;;;;;;26.71;42.44;94932.69;5062090;28;20032;-51
2022/07/30 01:52:53;;;;;;;6.38;3.17;;;;;;;26.66;42.55;94936.31;5061685;28;20033;-57
2022/07/30 01:55:45;;;;;;;3.95;3.30;;;;;;;26.67;42.76;94943.28;5043945;28;20140;-57
2022/07/30 01:58:11;;;;;;;6.30;3.30;;;;;;;26.60;42.54;94936.44;5052911;28;20052;-53
2022/07/30 02:00:37;;;;;;;4.78;2.90;;;;;;;26.59;42.46;94939.69;5049501;28;20090;-51
2022/07/30 02:03:04;;;;;;;6.97;3.58;;;;;;;26.53;43.11;94936.34;5040960;28;20041;-55
2022/07/30 02:05:30;;;;;;;4.70;3.30;;;;;;;26.50;42.99;94940.16;5041881;28;20036;-55
2022/07/30 02:07:56;;;;;;;5.53;3.40;;;;;;;26.48;42.96;94929.00;5063021;28;20224;-57
2022/07/30 02:10:33;;;;;;;4.40;3.38;;;;;;;26.46;43.35;94937.00;5046501;28;20039;-56
2022/07/30 02:13:00;;;;;;;5.25;3.30;;;;;;;26.42;43.30;94936.59;5047506;28;20156;-53
2022/07/30 02:15:29;;;;;;;6.20;3.95;;;;;;;26.40;43.42;94934.38;5047232;28;20514;-53
2022/07/30 02:18:14;;;;;;;4.60;3.33;;;;;;;26.39;43.77;94932.19;5065956;28;20037;-54
2022/07/30 02:20:44;;;;;;;6.75;3.65;;;;;;;26.37;43.91;94926.50;5030975;28;20048;-58
2022/07/30 02:23:10;;;;;;;6.85;4.10;;;;;;;26.35;43.70;94923.53;5043247;28;20966;-59
2022/07/30 02:25:36;;;;;;;4.10;3.58;;;;;;;26.32;43.97;94927.34;5040601;28;20056;-58
2022/07/30 02:28:04;;;;;;;5.60;3.75;;;;;;;26.27;43.84;94925.44;5043790;28;20059;-58
2022/07/30 02:30:31;;;;;;;5.30;3.20;;;;;;;26.27;44.10;94926.19;5036211;28;20563;-59
2022/07/30 02:33:07;;;;;;;4.88;3.17;;;;;;;26.26;44.21;94923.97;5065141;28;20051;-57
2022/07/30 02:35:32;;;;;;;5.47;3.47;;;;;;;26.21;44.58;94927.56;5057912;28;20041;-54
2022/07/30 02:37:58;;;;;;;5.70;3.65;;;;;;;26.18;44.28;94928.63;5046749;28;20082;-56
2022/07/30 02:40:24;;;;;;;5.10;3.83;;;;;;;26.17;44.47;94921.66;5041275;28;20059;-56
2022/07/30 02:42:50;;;;;;;5.50;4.00;;;;;;;26.16;44.29;94922.19;5030174;28;20434;-57
2022/07/30 02:45:19;;;;;;;4.78;3.75;;;;;;;26.13;44.49;94926.75;5047562;28;20033;-56
2022/07/30 02:47:49;;;;;;;5.95;3.72;;;;;;;26.14;44.39;94917.25;5065088;28;20086;-56
2022/07/30 02:50:15;;;;;;;4.63;3.45;;;;;;;26.11;44.28;94918.31;5065344;28;20035;-55
2022/07/30 02:52:40;;;;;;;4.93;3.60;;;;;;;26.09;44.54;94920.13;5046906;28;20032;-58
2022/07/30 02:55:07;;;;;;;4.50;3.63;;;;;;;26.04;44.47;94920.97;5030434;28;20033;-56
2022/07/30 02:57:33;;;;;;;4.90;3.83;;;;;;;26.04;44.63;94918.97;5027026;28;20033;-58
2022/07/30 02:59:58;;;;;;;4.93;3.60;;;;;;;26.03;45.02;94914.03;5045231;28;20614;-58
2022/07/30 03:02:23;;;;;;;4.13;3.67;;;;;;;25.98;45.07;94915.59;5026724;28;20467;-58
2022/07/30 03:04:49;;;;;;;6.63;3.63;;;;;;;25.95;45.08;94905.72;5025899;28;20048;-60
2022/07/30 03:07:14;;;;;;;6.22;4.00;;;;;;;25.92;45.07;94917.72;5027406;28;20041;-56
2022/07/30 03:09:40;;;;;;;6.43;4.35;;;;;;;25.92;45.26;94912.25;5021848;28;20534;-57
2022/07/30 03:12:06;;;;;;;4.05;3.40;;;;;;;25.85;45.50;94907.41;5043170;28;20530;-60
2022/07/30 03:14:32;;;;;;;6.07;3.90;;;;;;;25.82;45.44;94905.72;5021812;28;20120;-57
2022/07/30 03:16:57;;;;;;;7.63;4.00;;;;;;;25.83;45.72;94903.75;5044455;28;20041;-58
2022/07/30 03:19:23;;;;;;;5.95;3.72;;;;;;;25.83;45.84;94904.47;5021249;28;20124;-54
2022/07/30 03:21:49;;;;;;;4.78;3.78;;;;;;;25.78;46.02;94912.06;5021446;28;20492;-56
2022/07/30 03:24:14;;;;;;;5.82;3.90;;;;;;;25.76;45.68;94911.84;5044120;28;20037;-55
2022/07/30 03:26:40;;;;;;;5.47;3.40;;;;;;;25.74;46.16;94911.63;5025238;28;20029;-57
2022/07/30 03:29:07;;;;;;;7.45;3.83;;;;;;;25.72;46.06;94919.63;5043213;28;20037;-52
2022/07/30 03:31:33;;;;;;;5.25;3.70;;;;;;;25.72;45.56;94911.44;5043180;28;20033;-56
2022/07/30 03:33:58;;;;;;;6.60;4.50;;;;;;;25.73;46.32;94907.44;5042587;28;20560;-58
2022/07/30 03:36:23;;;;;;;4.05;3.53;;;;;;;25.70;45.93;94911.22;5013496;28;20045;-58
2022/07/30 03:38:49;;;;;;;4.60;3.97;;;;;;;25.69;46.19;94915.22;5029362;28;20083;-53
2022/07/30 03:41:14;;;;;;;4.43;4.00;;;;;;;25.67;46.70;94928.69;5042241;28;20496;-54
2022/07/30 03:43:40;;;;;;;4.70;4.03;;;;;;;25.64;46.55;94921.50;5020198;28;20055;-54
2022/07/30 03:46:06;;;;;;;5.53;4.10;;;;;;;25.63;46.53;94922.75;5025912;28;20032;-53
2022/07/30 03:48:32;;;;;;;5.38;3.75;;;;;;;25.64;46.56;94924.25;5036914;28;20039;-51
2022/07/30 03:50:58;;;;;;;5.35;3.70;;;;;;;25.60;46.57;94923.81;5042725;28;20040;-51
2022/07/30 03:53:24;;;;;;;5.35;4.10;;;;;;;25.60;46.61;94929.28;5043607;28;20037;-53
2022/07/30 03:55:51;;;;;;;5.68;3.70;;;;;;;25.60;46.98;94929.28;5039513;28;20045;-54
2022/07/30 03:58:16;;;;;;;5.20;4.15;;;;;;;25.59;47.19;94927.78;5021239;28;20520;-53
2022/07/30 04:00:42;;;;;;;4.10;3.70;;;;;;;25.57;47.15;94927.59;5025301;28;20036;-52
2022/07/30 04:03:07;;;;;;;5.50;4.10;;;;;;;25.53;47.43;94935.38;5025307;28;20037;-56
2022/07/30 04:05:33;;;;;;;5.18;4.57;;;;;;;25.51;47.24;94937.91;5043176;28;20083;-52
2022/07/30 04:07:58;;;;;;;5.88;4.15;;;;;;;25.52;47.38;94928.44;5044050;28;20114;-54
2022/07/30 04:10:24;;;;;;;5.30;3.50;;;;;;;25.50;47.68;94930.94;5043871;28;20389;-55
2022/07/30 04:12:49;;;;;;;6.68;4.22;;;;;;;25.54;47.43;94936.84;5043391;28;20051;-54
2022/07/30 04:15:14;;;;;;;4.43;3.85;;;;;;;25.52;47.82;94939.38;5042510;28;20033;-54
2022/07/30 04:17:42;;;;;;;5.35;4.20;;;;;;;25.51;47.98;94935.16;5043263;28;20123;-53
2022/07/30 04:20:35;;;;;;;6.43;3.63;;;;;;;25.56;47.70;94928.84;5043145;28;20041;-59
2022/07/30 04:23:01;;;;;;;4.93;3.83;;;;;;;25.50;47.59;94936.41;5017041;28;20044;-55
2022/07/30 04:25:27;;;;;;;5.50;3.45;;;;;;;25.51;47.84;94935.16;5026040;28;20037;-51
2022/07/30 04:27:52;;;;;;;4.22;3.67;;;;;;;25.53;48.01;94935.38;5026946;28;20060;-57
2022/07/30 04:30:17;;;;;;;7.30;4.15;;;;;;;25.53;48.33;94935.38;5041044;28;20043;-51
2022/07/30 04:32:43;;;;;;;6.93;4.05;;;;;;;25.55;48.29;94935.59;5039662;28;20041;-59
2022/07/30 04:35:08;;;;;;;5.00;3.90;;;;;;;25.63;48.71;94950.09;5008934;28;20511;-57
2022/07/30 04:37:34;;;;;;;4.47;3.60;;;;;;;25.67;48.43;94940.34;5043695;28;20420;-56
2022/07/30 04:39:59;;;;;;;4.97;3.60;;;;;;;25.76;48.63;94947.41;5043001;28;20644;-52
2022/07/30 04:42:26;;;;;;;5.35;4.10;;;;;;;25.82;48.05;94946.75;5042719;28;20040;-50
2022/07/30 04:44:52;;;;;;;4.00;3.50;;;;;;;25.94;47.93;94953.50;5041697;28;20036;-54
2022/07/30 04:47:17;;;;;;;5.47;4.03;;;;;;;26.07;47.42;94950.75;5042600;28;20411;-53
2022/07/30 04:49:44;;;;;;;8.05;4.35;;;;;;;26.20;47.19;94947.97;5042231;28;20033;-52
2022/07/30 04:52:10;;;;;;;6.63;4.65;;;;;;;26.31;46.94;94954.00;5040733;28;20025;-53
2022/07/30 04:54:57;;;;;;;6.90;4.70;;;;;;;26.47;46.32;94952.16;5017158;28;20045;-53
2022/07/30 04:57:23;;;;;;;5.03;4.38;;;;;;;26.60;46.21;94947.38;5022201;28;20515;-54
2022/07/30 04:59:48;;;;;;;7.10;4.78;;;;;;;26.68;45.91;94941.97;5040361;28;20048;-51
2022/07/30 05:02:14;;;;;;;8.95;4.82;;;;;;;26.76;45.47;94937.34;5040562;28;20037;-54
2022/07/30 05:04:40;;;;;;;7.20;4.53;;;;;;;26.90;45.26;94931.28;5038814;28;20029;-53
2022/07/30 05:07:06;;;;;;;7.95;4.88;;;;;;;27.02;45.03;94927.72;5041765;28;20037;-54
2022/07/30 05:09:31;;;;;;;6.68;4.38;;;;;;;27.09;45.15;94932.56;5040510;28;20531;-53
2022/07/30 05:11:58;;;;;;;6.30;4.97;;;;;;;27.18;44.92;94934.81;5024608;28;20535;-58
2022/07/30 05:14:23;;;;;;;7.28;5.28;;;;;;;27.34;44.76;94928.19;5041824;28;20036;-54
2022/07/30 05:16:49;;;;;;;10.13;5.53;;;;;;;27.30;44.27;94936.00;5034614;28;20048;-55
2022/07/30 05:19:16;;;;;;;8.73;5.47;;;;;;;27.11;44.55;94940.97;5042293;28;20230;-51
2022/07/30 05:21:41;;;;;;;6.65;4.53;;;;;;;27.25;44.36;94945.13;5037318;28;20047;-59
2022/07/30 05:24:07;;;;;;;6.20;5.25;;;;;;;27.20;44.08;94943.22;5042391;28;20037;-60
2022/07/30 05:26:32;;;;;;;7.03;5.35;;;;;;;27.26;44.33;94941.09;5042330;28;20108;-59
2022/07/30 05:28:58;;;;;;;10.80;5.07;;;;;;;27.25;44.13;94936.91;5042291;28;20037;-63
2022/07/30 05:31:24;;;;;;;6.15;5.53;;;;;;;27.47;43.85;94939.06;5042207;28;20784;-61
2022/07/30 05:33:49;;;;;;;9.88;5.97;;;;;;;27.49;43.78;94944.75;5042052;28;20171;-54
2022/07/30 05:36:15;;;;;;;9.23;5.20;;;;;;;27.51;43.83;94934.00;5040797;28;20029;-61
2022/07/30 05:38:40;;;;;;;7.88;5.05;;;;;;;27.57;43.54;94942.81;5041482;28;20044;-54
2022/07/30 05:41:06;;;;;;;6.35;5.40;;;;;;;27.61;44.06;94937.72;5042138;28;20063;-52
2022/07/30 05:43:31;;;;;;;8.90;4.72;;;;;;;27.71;43.60;94942.16;5043657;28;20040;-61
2022/07/30 05:45:57;;;;;;;6.80;5.18;;;;;;;27.78;43.64;94947.00;5045941;28;20071;-59
2022/07/30 05:48:22;;;;;;;7.60;5.13;;;;;;;27.82;43.45;94937.13;5046064;28;20033;-57
2022/07/30 05:50:48;;;;;;;8.52;4.55;;;;;;;27.81;43.63;94935.66;5045925;28;20282;-60
2022/07/30 05:53:13;;;;;;;6.93;4.32;;;;;;;27.95;43.45;94934.28;5046383;28;20064;-59
2022/07/30 05:55:38;;;;;;;11.52;5.10;;;;;;;28.00;43.48;94941.63;5045157;28;20037;-53
2022/07/30 05:58:04;;;;;;;7.18;4.68;;;;;;;27.99;43.44;94945.63;5048148;28;20045;-58
2022/07/30 06:00:29;;;;;;;7.32;4.85;;;;;;;28.09;42.78;94943.16;5065660;28;20036;-61
2022/07/30 06:02:55;;;;;;;8.98;4.70;;;;;;;28.06;43.33;94939.47;5064044;28;20036;-63
2022/07/30 06:05:20;;;;;;;8.38;4.68;;;;;;;28.12;43.54;94936.59;5064246;28;20036;-55
2022/07/30 06:07:46;;;;;;;7.50;4.57;;;;;;;28.24;42.59;94943.97;5065724;28;20086;-62
2022/07/30 06:10:11;;;;;;;7.07;4.28;;;;;;;28.31;42.66;94940.50;5058905;28;20040;-65
2022/07/30 06:12:37;;;;;;;7.32;4.53;;;;;;;28.35;42.52;94954.63;5065120;28;20115;-62
2022/07/30 06:15:02;;;;;;;6.40;4.15;;;;;;;28.44;42.86;94948.63;5058376;28;20415;-55
2022/07/30 06:17:28;;;;;;;7.78;4.10;;;;;;;28.40;42.59;94957.22;5065537;28;20443;-60
2022/07/30 06:19:53;;;;;;;9.75;4.13;;;;;;;28.47;42.92;94955.78;5058494;28;20037;-63
2022/07/30 06:22:19;;;;;;;5.43;4.10;;;;;;;28.59;42.38;94956.91;5061929;28;20043;-60
2022/07/30 06:24:44;;;;;;;5.95;4.00;;;;;;;28.57;42.61;94954.72;5061188;28;20037;-58
2022/07/30 06:27:10;;;;;;;7.05;4.75;;;;;;;28.63;41.90;94946.31;5061683;28;20039;-53
2022/07/30 06:29:36;;;;;;;4.95;3.67;;;;;;;28.71;41.06;94938.84;5065114;28;20090;-53
2022/07/30 06:32:02;;;;;;;5.45;3.67;;;;;;;28.72;42.28;94943.06;5058532;28;20503;-55
2022/07/30 06:34:27;;;;;;;6.13;4.28;;;;;;;28.71;41.88;94947.09;5063289;28;20068;-60
2022/07/30 06:36:52;;;;;;;5.40;3.60;;;;;;;28.77;41.64;94935.38;5062094;28;20024;-59
2022/07/30 06:39:18;;;;;;;5.00;3.85;;;;;;;28.87;40.86;94936.31;5064063;28;20492;-59
2022/07/30 06:41:44;;;;;;;6.70;3.90;;;;;;;28.83;41.45;94927.69;5060971;28;20473;-62
2022/07/30 06:44:10;;;;;;;5.47;3.92;;;;;;;28.79;41.11;94930.06;5054830;28;20035;-51
2022/07/30 06:46:35;;;;;;;6.50;4.32;;;;;;;28.74;41.10;94919.22;5060564;28;20128;-51
2022/07/30 06:49:01;;;;;;;6.75;4.10;;;;;;;28.77;41.65;94929.88;5058577;28;20498;-56
2022/07/30 06:51:26;;;;;;;6.85;3.97;;;;;;;28.75;41.02;94926.94;5054775;28;20131;-61
2022/07/30 06:53:52;;;;;;;6.25;3.70;;;;;;;28.67;41.01;94913.72;5064746;28;20066;-61
2022/07/30 06:56:17;;;;;;;8.15;4.10;;;;;;;28.68;41.74;94926.19;5044307;28;20197;-60
2022/07/30 06:58:43;;;;;;;8.20;4.05;;;;;;;28.60;41.68;94915.16;5053626;28;20041;-53
2022/07/30 07:01:08;;;;;;;5.30;3.58;;;;;;;28.58;41.79;94911.47;5053928;28;20028;-56
2022/07/30 07:03:33;;;;;;;7.30;3.50;;;;;;;28.55;42.03;94912.56;5053978;28;20478;-56
2022/07/30 07:05:59;;;;;;;6.43;4.00;;;;;;;28.50;41.59;94916.22;5060228;28;20032;-56
2022/07/30 07:08:25;;;;;;;7.65;4.40;;;;;;;28.45;41.78;94909.59;5048516;28;20037;-58
2022/07/30 07:10:50;;;;;;;5.80;4.13;;;;;;;28.45;42.42;94917.13;5054130;28;20020;-59
2022/07/30 07:13:16;;;;;;;8.57;4.20;;;;;;;28.41;42.06;94909.22;5064514;28;20028;-59
2022/07/30 07:15:41;;;;;;;7.15;4.40;;;;;;;28.35;42.55;94905.19;5050980;28;20028;-55
2022/07/30 07:18:07;;;;;;;7.30;4.30;;;;;;;28.39;41.99;94908.31;5047943;28;20029;-61
2022/07/30 07:20:33;;;;;;;5.57;3.90;;;;;;;28.30;42.07;94904.06;5066114;28;20044;-51
2022/07/30 07:22:59;;;;;;;7.25;4.20;;;;;;;28.28;42.56;94901.13;5061141;28;20128;-52
2022/07/30 07:25:24;;;;;;;7.38;3.92;;;;;;;28.25;42.33;94902.22;5045946;28;20040;-53
2022/07/30 07:27:49;;;;;;;5.68;3.58;;;;;;;28.24;42.38;94900.03;5043576;28;20033;-51
2022/07/30 07:30:15;;;;;;;6.93;4.55;;;;;;;28.22;43.04;94902.59;5054593;28;20052;-50
2022/07/30 07:32:40;;;;;;;5.65;4.10;;;;;;;28.26;42.71;94908.44;5055053;28;20041;-53
2022/07/30 07:35:06;;;;;;;6.20;4.15;;;;;;;28.23;42.96;94897.81;5062046;28;20510;-50
2022/07/30 07:37:32;;;;;;;6.95;4.32;;;;;;;28.19;42.48;94891.94;5062948;28;20518;-55
2022/07/30 07:39:57;;;;;;;5.70;4.05;;;;;;;28.18;42.92;94896.69;5061990;28;20052;-54
2022/07/30 07:42:23;;;;;;;5.95;4.32;;;;;;;28.19;42.69;94895.44;5062263;28;20049;-54
2022/07/30 07:44:48;;;;;;;5.68;4.10;;;;;;;28.17;43.22;94897.97;5063274;28;20485;-55
2022/07/30 07:47:14;;;;;;;6.68;3.83;;;;;;;28.21;42.61;94901.09;5056346;28;20029;-54
2022/07/30 07:49:39;;;;;;;5.93;4.13;;;;;;;28.15;42.74;94897.06;5055275;28;20368;-53
2022/07/30 07:52:05;;;;;;;7.90;4.38;;;;;;;28.12;43.48;94887.88;5063146;28;20029;-54
2022/07/30 07:54:30;;;;;;;5.22;4.30;;;;;;;28.11;43.00;94897.41;5063207;28;20090;-53
2022/07/30 07:56:56;;;;;;;5.50;4.25;;;;;;;28.08;43.04;94892.97;5063298;28;20032;-55
2022/07/30 07:59:22;;;;;;;6.10;4.45;;;;;;;28.11;43.29;94897.41;5065005;28;20032;-56
2022/07/30 08:01:47;;;;;;;4.80;3.80;;;;;;;28.17;42.87;94895.22;5061374;28;20040;-53
2022/07/30 08:04:13;;;;;;;6.88;4.63;;;;;;;28.15;42.75;94886.81;5058040;28;20495;-53
2022/07/30 08:06:39;;;;;;;6.68;4.05;;;;;;;28.13;42.98;94889.38;5062799;28;20538;-55
2022/07/30 08:09:04;;;;;;;7.85;4.32;;;;;;;28.17;43.06;94884.25;5060432;28;20059;-55
2022/07/30 08:11:30;;;;;;;5.55;4.07;;;;;;;28.15;43.48;94891.56;5061345;28;20052;-60
2022/07/30 08:13:56;;;;;;;5.95;4.25;;;;;;;28.14;43.39;94890.81;5060316;28;20032;-55
2022/07/30 08:16:21;;;;;;;5.32;4.60;;;;;;;28.13;43.53;94894.88;5061253;28;20036;-54
2022/07/30 08:18:47;;;;;;;7.05;4.00;;;;;;;28.09;43.32;94894.47;5059485;28;20518;-54
2022/07/30 08:21:14;;;;;;;6.03;4.18;;;;;;;28.14;42.81;94884.59;5061467;28;20098;-55
2022/07/30 08:23:39;;;;;;;5.00;4.07;;;;;;;28.14;43.31;94885.31;5060728;28;20040;-55
2022/07/30 08:26:05;;;;;;;5.97;4.22;;;;;;;28.15;42.93;94886.81;5061617;28;20044;-56
2022/07/30 08:28:30;;;;;;;4.90;4.03;;;;;;;28.13;42.95;94878.38;5060350;28;20040;-59
2022/07/30 08:30:56;;;;;;;6.63;3.92;;;;;;;28.20;42.36;94883.16;5061641;28;20051;-56
2022/07/30 08:33:21;;;;;;;7.03;3.97;;;;;;;28.18;42.85;94874.72;5059674;28;20037;-58
2022/07/30 08:35:47;;;;;;;7.25;4.50;;;;;;;28.16;42.36;94879.28;5059699;28;20032;-56
2022/07/30 08:38:12;;;;;;;4.78;3.92;;;;;;;28.17;42.58;94876.00;5058122;28;20044;-57
2022/07/30 08:40:38;;;;;;;5.72;4.00;;;;;;;28.17;42.62;94873.25;5060497;28;20098;-55
2022/07/30 08:43:04;;;;;;;7.68;4.20;;;;;;;28.17;43.14;94873.25;5059827;28;20040;-56
2022/07/30 08:45:30;;;;;;;4.60;4.00;;;;;;;28.15;42.75;94870.31;5060232;28;20037;-60
2022/07/30 08:47:55;;;;;;;7.43;4.25;;;;;;;28.16;42.74;94871.81;5058194;28;20040;-58
2022/07/30 08:50:21;;;;;;;7.00;4.00;;;;;;;28.19;42.93;94865.22;5028090;28;20067;-54
2022/07/30 08:52:47;;;;;;;5.38;4.15;;;;;;;28.19;42.73;94876.22;5058004;28;20052;-58
2022/07/30 08:55:13;;;;;;;6.28;3.85;;;;;;;28.23;42.44;94862.84;5042729;28;20033;-56
2022/07/30 08:57:38;;;;;;;6.90;4.53;;;;;;;28.23;42.00;94854.59;5053927;28;20043;-55
2022/07/30 09:00:05;;;;;;;5.75;4.43;;;;;;;28.24;42.26;94850.59;5022696;28;20037;-59
2022/07/30 09:02:31;;;;;;;6.78;4.07;;;;;;;28.23;42.43;94849.09;5041094;28;20041;-59
2022/07/30 09:04:56;;;;;;;5.05;4.28;;;;;;;28.24;41.85;94839.59;5043510;28;20041;-58
2022/07/30 09:07:22;;;;;;;6.90;4.47;;;;;;;28.27;42.02;94844.00;5045737;28;20100;-58
2022/07/30 09:09:47;;;;;;;6.55;4.07;;;;;;;28.28;42.49;94845.44;5062140;28;20033;-53
2022/07/30 09:12:38;;;;;;;5.88;4.55;;;;;;;28.29;42.44;94835.94;5046036;28;20041;-57
2022/07/30 09:15:24;;;;;;;5.78;4.07;;;;;;;28.30;42.37;94827.16;5057425;28;20036;-57
2022/07/30 09:17:59;;;;;;;4.78;4.10;;;;;;;28.30;41.54;94831.91;5043060;28;20037;-57
2022/07/30 09:20:29;;;;;;;5.90;4.47;;;;;;;28.28;42.23;94824.22;5055409;28;20069;-59
2022/07/30 09:22:57;;;;;;;4.35;3.95;;;;;;;28.32;41.61;94824.59;5021826;28;20048;-58
2022/07/30 09:25:39;;;;;;;6.20;4.60;;;;;;;28.39;41.43;94823.16;5033553;28;20057;-58
2022/07/30 09:28:05;;;;;;;5.03;4.13;;;;;;;28.43;41.63;94823.50;5031470;28;20537;-56
2022/07/30 09:30:52;;;;;;;5.13;4.40;;;;;;;28.42;41.68;94816.56;5033572;28;20060;-59
2022/07/30 09:33:37;;;;;;;5.15;4.10;;;;;;;28.42;41.56;94808.31;5055231;28;20037;-56
2022/07/30 09:36:07;;;;;;;5.10;4.13;;;;;;;28.42;41.32;94811.06;5040842;28;20037;-54
2022/07/30 09:38:51;;;;;;;5.88;3.97;;;;;;;28.44;41.53;94814.00;5039595;28;20087;-56
2022/07/30 09:41:31;;;;;;;5.25;4.30;;;;;;;28.44;41.48;94814.00;5041934;28;20120;-55
2022/07/30 09:43:57;;;;;;;4.72;4.22;;;;;;;28.46;40.93;94811.41;5034328;28;20411;-58
2022/07/30 09:46:22;;;;;;;6.35;4.03;;;;;;;28.51;41.05;94813.28;5021906;28;20029;-57
2022/07/30 09:48:48;;;;;;;5.03;4.07;;;;;;;28.54;41.29;94812.19;5040457;28;20032;-59
2022/07/30 09:51:13;;;;;;;5.30;3.88;;;;;;;28.51;41.50;94807.78;5042042;28;20048;-59
2022/07/30 09:53:55;;;;;;;10.02;4.18;;;;;;;28.52;41.84;94798.25;5040079;28;20040;-56
2022/07/30 09:56:27;;;;;;;5.13;4.13;;;;;;;28.54;41.28;94795.69;5041617;28;20136;-57
2022/07/30 09:58:53;;;;;;;4.85;4.05;;;;;;;28.56;41.61;94793.13;5049069;28;20148;-54
2022/07/30 10:01:19;;;;;;;7.80;4.40;;;;;;;28.57;41.84;94791.84;5057476;28;20120;-58
2022/07/30 10:03:44;;;;;;;5.20;4.53;;;;;;;28.58;41.51;94796.03;5049186;28;20048;-56
2022/07/30 10:06:10;;;;;;;5.32;4.10;;;;;;;28.61;41.10;94783.97;5040567;28;20041;-59
2022/07/30 10:08:41;;;;;;;6.45;3.75;;;;;;;28.63;41.45;94781.41;5058468;28;20094;-57
2022/07/30 10:11:15;;;;;;;4.90;4.20;;;;;;;28.64;41.17;94780.09;5061998;28;20114;-59
2022/07/30 10:13:41;;;;;;;5.00;4.35;;;;;;;28.65;41.09;94770.59;5061800;28;20032;-53
2022/07/30 10:16:06;;;;;;;5.43;3.95;;;;;;;28.63;40.96;94767.66;5062201;28;20024;-56
2022/07/30 10:18:32;;;;;;;4.93;4.15;;;;;;;28.63;41.39;94760.16;5053741;28;20028;-59
2022/07/30 10:20:58;;;;;;;5.50;4.57;;;;;;;28.67;40.94;94773.53;5055578;28;20053;-59
2022/07/30 10:23:26;;;;;;;5.80;4.50;;;;;;;28.65;41.28;94763.06;5040746;28;20024;-56
2022/07/30 10:25:57;;;;;;;6.35;4.10;;;;;;;28.68;41.45;94764.03;5025841;28;20061;-55
2022/07/30 10:28:23;;;;;;;5.93;4.30;;;;;;;28.69;40.68;94760.72;5032672;28;20028;-57
2022/07/30 10:30:49;;;;;;;6.80;4.50;;;;;;;28.70;41.30;94756.72;5049187;28;20048;-56
2022/07/30 10:33:15;;;;;;;6.18;4.50;;;;;;;28.71;40.66;94746.44;5064218;28;20033;-55
2022/07/30 10:35:40;;;;;;;6.00;4.40;;;;;;;28.70;41.13;94747.72;5042966;28;20147;-54
2022/07/30 10:38:10;;;;;;;5.20;4.25;;;;;;;28.74;40.54;94748.81;5061104;28;20033;-54
2022/07/30 10:40:37;;;;;;;;;;;;;;;28.74;40.70;94738.56;5066283;28;20486;-56
2022/07/30 10:43:23;;;;;;;7.47;5.00;;;;;;;28.77;40.69;94737.47;5062709;28;19920;-57
2022/07/30 10:46:15;;;;;;;6.60;4.45;;;;;;;28.77;41.27;94737.47;5046870;28;20553;-55
2022/07/30 10:48:40;;;;;;;5.80;4.40;;;;;;;28.79;41.13;94728.66;5043157;28;20043;-56
2022/07/30 10:51:06;;;;;;;5.30;4.65;;;;;;;28.81;40.52;94729.56;5062068;28;20028;-55
2022/07/30 10:53:45;;;;;;;5.35;4.85;;;;;;;28.80;40.68;94733.59;5055851;28;20029;-55
2022/07/30 10:56:16;;;;;;;6.18;4.95;;;;;;;28.80;40.96;94736.34;5063169;28;20016;-53
2022/07/30 10:59:01;;;;;;;6.13;4.93;;;;;;;28.82;40.90;94728.28;5064080;28;20045;-54
2022/07/30 11:01:46;;;;;;;6.75;5.45;;;;;;;28.82;40.89;94722.06;5062805;28;20048;-55
2022/07/30 11:04:21;;;;;;;6.15;4.95;;;;;;;28.86;40.38;94723.16;5062853;28;20111;-53
2022/07/30 11:06:47;;;;;;;6.75;5.40;;;;;;;28.87;40.56;94719.09;5064264;28;20118;-56
2022/07/30 11:09:41;;;;;;;6.75;5.03;;;;;;;28.89;40.83;94716.56;5062707;28;20040;-53
2022/07/30 11:12:08;;;;;;;6.32;5.22;;;;;;;28.90;40.09;94701.50;5062731;28;20519;-54
2022/07/30 11:14:45;;;;;;;6.22;5.10;;;;;;;28.93;40.46;94708.63;5063740;28;20048;-55
2022/07/30 11:17:15;;;;;;;6.10;4.90;;;;;;;28.92;40.02;94698.19;5063765;28;20040;-55
2022/07/30 11:20:06;;;;;;;6.20;5.38;;;;;;;28.95;40.70;94697.09;5055307;28;20037;-54
2022/07/30 11:22:37;;;;;;;7.00;5.05;;;;;;;28.96;40.76;94688.28;5047214;28;20128;-54
2022/07/30 11:25:23;;;;;;;5.32;4.80;;;;;;;28.99;40.75;94684.44;5049400;28;20075;-56
2022/07/30 11:27:49;;;;;;;7.25;5.10;;;;;;;28.99;40.71;94681.69;5037573;28;20041;-53
2022/07/30 11:30:14;;;;;;;5.30;4.80;;;;;;;28.99;40.12;94692.69;5049550;28;20033;-54
2022/07/30 11:32:50;;;;;;;5.45;4.75;;;;;;;28.97;40.51;94684.25;5046567;28;20056;-53
2022/07/30 11:35:29;;;;;;;6.22;5.22;;;;;;;29.02;40.58;94686.06;5059284;28;20090;-56